sensor_id;sensor_type;location;lat;lon;timestamp;P1;durP1;ratioP1;P2;durP2;ratioP2
52414;SDS011;38340;52.964;6.086;2024-02-16T00:00:44;11.48;;;5.93;;
52414;SDS011;38340;52.964;6.086;2024-02-16T00:03:11;11.95;;;6.55;;
52414;SDS011;38340;52.964;6.086;2024-02-16T00:05:37;12.38;;;5.35;;
52414;SDS011;38340;52.964;6.086;2024-02-16T00:08:03;8.80;;;5.47;;
52414;SDS011;38340;52.964;6.086;2024-02-16T00:10:29;9.23;;;5.60;;
52414;SDS011;38340;52.964;6.086;2024-02-16T00:12:55;9.75;;;5.85;;
52414;SDS011;38340;52.964;6.086;2024-02-16T00:15:22;12.57;;;5.95;;
52414;SDS011;38340;52.964;6.086;2024-02-16T00:17:48;7.35;;;4.75;;
52414;SDS011;38340;52.964;6.086;2024-02-16T00:20:14;9.27;;;5.70;;
52414;SDS011;38340;52.964;6.086;2024-02-16T00:22:40;10.88;;;5.40;;
52414;SDS011;38340;52.964;6.086;2024-02-16T00:25:06;8.80;;;5.57;;
52414;SDS011;38340;52.964;6.086;2024-02-16T00:27:32;8.93;;;5.40;;
52414;SDS011;38340;52.964;6.086;2024-02-16T00:29:58;8.75;;;5.63;;
52414;SDS011;38340;52.964;6.086;2024-02-16T00:32:24;9.43;;;5.00;;
52414;SDS011;38340;52.964;6.086;2024-02-16T00:34:54;7.00;;;5.05;;
52414;SDS011;38340;52.964;6.086;2024-02-16T00:37:20;8.30;;;4.60;;
52414;SDS011;38340;52.964;6.086;2024-02-16T00:39:46;7.13;;;4.85;;
52414;SDS011;38340;52.964;6.086;2024-02-16T00:42:12;11.52;;;5.10;;
52414;SDS011;38340;52.964;6.086;2024-02-16T00:44:37;7.45;;;4.90;;
52414;SDS011;38340;52.964;6.086;2024-02-16T00:47:04;9.00;;;5.40;;
52414;SDS011;38340;52.964;6.086;2024-02-16T00:49:34;9.82;;;5.40;;
52414;SDS011;38340;52.964;6.086;2024-02-16T00:52:00;7.72;;;5.97;;
52414;SDS011;38340;52.964;6.086;2024-02-16T00:54:27;7.00;;;4.85;;
52414;SDS011;38340;52.964;6.086;2024-02-16T00:56:53;8.00;;;4.65;;
52414;SDS011;38340;52.964;6.086;2024-02-16T00:59:20;9.50;;;5.78;;
52414;SDS011;38340;52.964;6.086;2024-02-16T01:01:46;7.93;;;4.68;;
52414;SDS011;38340;52.964;6.086;2024-02-16T01:04:12;7.00;;;5.20;;
52414;SDS011;38340;52.964;6.086;2024-02-16T01:06:37;5.85;;;4.65;;
52414;SDS011;38340;52.964;6.086;2024-02-16T01:09:03;8.43;;;5.38;;
52414;SDS011;38340;52.964;6.086;2024-02-16T01:11:29;7.03;;;4.78;;
52414;SDS011;38340;52.964;6.086;2024-02-16T01:13:55;7.60;;;5.35;;
52414;SDS011;38340;52.964;6.086;2024-02-16T01:16:20;5.60;;;4.60;;
52414;SDS011;38340;52.964;6.086;2024-02-16T01:18:46;9.75;;;5.43;;
52414;SDS011;38340;52.964;6.086;2024-02-16T01:21:12;6.95;;;5.38;;
52414;SDS011;38340;52.964;6.086;2024-02-16T01:23:37;8.13;;;4.65;;
52414;SDS011;38340;52.964;6.086;2024-02-16T01:26:03;10.10;;;5.07;;
52414;SDS011;38340;52.964;6.086;2024-02-16T01:28:29;6.95;;;4.93;;
52414;SDS011;38340;52.964;6.086;2024-02-16T01:30:54;7.60;;;4.85;;
52414;SDS011;38340;52.964;6.086;2024-02-16T01:33:21;8.18;;;4.63;;
52414;SDS011;38340;52.964;6.086;2024-02-16T01:35:47;8.20;;;4.80;;
52414;SDS011;38340;52.964;6.086;2024-02-16T01:38:13;7.03;;;4.45;;
52414;SDS011;38340;52.964;6.086;2024-02-16T01:40:39;8.70;;;4.75;;
52414;SDS011;38340;52.964;6.086;2024-02-16T01:43:05;8.52;;;4.85;;
52414;SDS011;38340;52.964;6.086;2024-02-16T01:45:31;6.45;;;4.88;;
52414;SDS011;38340;52.964;6.086;2024-02-16T01:47:56;6.78;;;4.85;;
52414;SDS011;38340;52.964;6.086;2024-02-16T01:50:23;6.05;;;4.45;;
52414;SDS011;38340;52.964;6.086;2024-02-16T01:52:49;7.70;;;4.97;;
52414;SDS011;38340;52.964;6.086;2024-02-16T01:55:15;6.82;;;4.95;;
52414;SDS011;38340;52.964;6.086;2024-02-16T01:57:45;9.63;;;5.45;;
52414;SDS011;38340;52.964;6.086;2024-02-16T02:00:12;7.88;;;4.78;;
52414;SDS011;38340;52.964;6.086;2024-02-16T02:02:40;9.55;;;5.55;;
52414;SDS011;38340;52.964;6.086;2024-02-16T02:05:08;8.00;;;5.50;;
52414;SDS011;38340;52.964;6.086;2024-02-16T02:07:33;7.03;;;4.78;;
52414;SDS011;38340;52.964;6.086;2024-02-16T02:09:59;10.18;;;5.82;;
52414;SDS011;38340;52.964;6.086;2024-02-16T02:12:25;7.68;;;5.38;;
52414;SDS011;38340;52.964;6.086;2024-02-16T02:14:51;8.05;;;4.97;;
52414;SDS011;38340;52.964;6.086;2024-02-16T02:17:17;5.97;;;4.60;;
52414;SDS011;38340;52.964;6.086;2024-02-16T02:19:45;10.20;;;4.75;;
52414;SDS011;38340;52.964;6.086;2024-02-16T02:22:17;7.65;;;4.80;;
52414;SDS011;38340;52.964;6.086;2024-02-16T02:24:44;9.82;;;5.15;;
52414;SDS011;38340;52.964;6.086;2024-02-16T02:27:10;6.40;;;5.57;;
52414;SDS011;38340;52.964;6.086;2024-02-16T02:29:37;8.73;;;5.07;;
52414;SDS011;38340;52.964;6.086;2024-02-16T02:32:04;6.47;;;5.07;;
52414;SDS011;38340;52.964;6.086;2024-02-16T02:34:30;8.52;;;5.07;;
52414;SDS011;38340;52.964;6.086;2024-02-16T02:36:55;6.80;;;5.22;;
52414;SDS011;38340;52.964;6.086;2024-02-16T02:39:21;6.15;;;4.70;;
52414;SDS011;38340;52.964;6.086;2024-02-16T02:41:47;11.50;;;5.30;;
52414;SDS011;38340;52.964;6.086;2024-02-16T02:44:12;7.65;;;5.28;;
52414;SDS011;38340;52.964;6.086;2024-02-16T02:46:38;9.35;;;5.05;;
52414;SDS011;38340;52.964;6.086;2024-02-16T02:49:04;8.00;;;4.85;;
52414;SDS011;38340;52.964;6.086;2024-02-16T02:51:30;7.82;;;5.03;;
52414;SDS011;38340;52.964;6.086;2024-02-16T02:53:55;7.70;;;4.90;;
52414;SDS011;38340;52.964;6.086;2024-02-16T02:56:21;6.15;;;5.07;;
52414;SDS011;38340;52.964;6.086;2024-02-16T02:58:47;9.10;;;5.47;;
52414;SDS011;38340;52.964;6.086;2024-02-16T03:01:13;6.32;;;4.50;;
52414;SDS011;38340;52.964;6.086;2024-02-16T03:03:40;6.53;;;4.57;;
52414;SDS011;38340;52.964;6.086;2024-02-16T03:06:08;7.47;;;5.32;;
52414;SDS011;38340;52.964;6.086;2024-02-16T03:08:34;7.45;;;5.00;;
52414;SDS011;38340;52.964;6.086;2024-02-16T03:11:00;8.40;;;5.03;;
52414;SDS011;38340;52.964;6.086;2024-02-16T03:13:26;7.57;;;5.05;;
52414;SDS011;38340;52.964;6.086;2024-02-16T03:15:52;8.38;;;4.60;;
52414;SDS011;38340;52.964;6.086;2024-02-16T03:18:18;6.82;;;4.80;;
52414;SDS011;38340;52.964;6.086;2024-02-16T03:20:44;6.85;;;5.10;;
52414;SDS011;38340;52.964;6.086;2024-02-16T03:23:13;7.65;;;5.22;;
52414;SDS011;38340;52.964;6.086;2024-02-16T03:25:39;7.85;;;4.90;;
52414;SDS011;38340;52.964;6.086;2024-02-16T03:28:05;7.50;;;5.00;;
52414;SDS011;38340;52.964;6.086;2024-02-16T03:30:34;8.25;;;5.38;;
52414;SDS011;38340;52.964;6.086;2024-02-16T03:33:00;8.32;;;5.28;;
52414;SDS011;38340;52.964;6.086;2024-02-16T03:35:25;7.70;;;5.20;;
52414;SDS011;38340;52.964;6.086;2024-02-16T03:37:52;7.97;;;5.32;;
52414;SDS011;38340;52.964;6.086;2024-02-16T03:40:18;9.98;;;5.57;;
52414;SDS011;38340;52.964;6.086;2024-02-16T03:42:44;8.27;;;5.20;;
52414;SDS011;38340;52.964;6.086;2024-02-16T03:45:09;7.75;;;5.22;;
52414;SDS011;38340;52.964;6.086;2024-02-16T03:47:36;7.97;;;5.18;;
52414;SDS011;38340;52.964;6.086;2024-02-16T03:50:05;5.63;;;4.63;;
52414;SDS011;38340;52.964;6.086;2024-02-16T03:52:32;9.32;;;5.15;;
52414;SDS011;38340;52.964;6.086;2024-02-16T03:54:57;11.88;;;4.82;;
52414;SDS011;38340;52.964;6.086;2024-02-16T03:57:23;7.22;;;5.13;;
52414;SDS011;38340;52.964;6.086;2024-02-16T03:59:49;6.40;;;5.10;;
52414;SDS011;38340;52.964;6.086;2024-02-16T04:02:14;8.90;;;5.15;;
52414;SDS011;38340;52.964;6.086;2024-02-16T04:04:40;7.45;;;5.90;;
52414;SDS011;38340;52.964;6.086;2024-02-16T04:07:06;5.82;;;4.43;;
52414;SDS011;38340;52.964;6.086;2024-02-16T04:09:33;7.28;;;4.95;;
52414;SDS011;38340;52.964;6.086;2024-02-16T04:11:59;9.07;;;5.55;;
52414;SDS011;38340;52.964;6.086;2024-02-16T04:14:26;9.55;;;4.85;;
52414;SDS011;38340;52.964;6.086;2024-02-16T04:16:52;7.47;;;4.78;;
52414;SDS011;38340;52.964;6.086;2024-02-16T04:19:18;7.53;;;5.25;;
52414;SDS011;38340;52.964;6.086;2024-02-16T04:21:43;7.63;;;4.95;;
52414;SDS011;38340;52.964;6.086;2024-02-16T04:24:09;7.88;;;5.30;;
52414;SDS011;38340;52.964;6.086;2024-02-16T04:26:35;6.05;;;4.90;;
52414;SDS011;38340;52.964;6.086;2024-02-16T04:29:01;5.75;;;5.10;;
52414;SDS011;38340;52.964;6.086;2024-02-16T04:31:29;7.00;;;4.80;;
52414;SDS011;38340;52.964;6.086;2024-02-16T04:33:55;8.18;;;5.35;;
52414;SDS011;38340;52.964;6.086;2024-02-16T04:36:20;6.60;;;4.82;;
52414;SDS011;38340;52.964;6.086;2024-02-16T04:38:46;6.80;;;4.80;;
52414;SDS011;38340;52.964;6.086;2024-02-16T04:41:12;5.22;;;4.50;;
52414;SDS011;38340;52.964;6.086;2024-02-16T04:43:38;9.10;;;4.97;;
52414;SDS011;38340;52.964;6.086;2024-02-16T04:46:04;5.78;;;4.85;;
52414;SDS011;38340;52.964;6.086;2024-02-16T04:48:30;7.32;;;5.10;;
52414;SDS011;38340;52.964;6.086;2024-02-16T04:50:57;6.38;;;5.15;;
52414;SDS011;38340;52.964;6.086;2024-02-16T04:53:23;8.07;;;5.50;;
52414;SDS011;38340;52.964;6.086;2024-02-16T04:55:48;7.55;;;5.47;;
52414;SDS011;38340;52.964;6.086;2024-02-16T04:58:14;7.43;;;5.47;;
52414;SDS011;38340;52.964;6.086;2024-02-16T05:00:40;8.50;;;5.28;;
52414;SDS011;38340;52.964;6.086;2024-02-16T05:03:06;6.35;;;5.28;;
52414;SDS011;38340;52.964;6.086;2024-02-16T05:05:32;8.27;;;5.75;;
52414;SDS011;38340;52.964;6.086;2024-02-16T05:07:57;5.93;;;5.15;;
52414;SDS011;38340;52.964;6.086;2024-02-16T05:10:23;6.95;;;4.75;;
52414;SDS011;38340;52.964;6.086;2024-02-16T05:12:49;9.20;;;5.25;;
52414;SDS011;38340;52.964;6.086;2024-02-16T05:15:14;6.35;;;5.25;;
52414;SDS011;38340;52.964;6.086;2024-02-16T05:17:42;8.65;;;4.93;;
52414;SDS011;38340;52.964;6.086;2024-02-16T05:20:12;7.90;;;5.15;;
52414;SDS011;38340;52.964;6.086;2024-02-16T05:22:41;7.18;;;5.20;;
52414;SDS011;38340;52.964;6.086;2024-02-16T05:25:20;6.28;;;5.30;;
52414;SDS011;38340;52.964;6.086;2024-02-16T05:27:46;6.72;;;5.05;;
52414;SDS011;38340;52.964;6.086;2024-02-16T05:30:15;8.73;;;5.22;;
52414;SDS011;38340;52.964;6.086;2024-02-16T05:32:41;10.82;;;5.47;;
52414;SDS011;38340;52.964;6.086;2024-02-16T05:35:07;6.15;;;4.63;;
52414;SDS011;38340;52.964;6.086;2024-02-16T05:37:41;7.72;;;5.45;;
52414;SDS011;38340;52.964;6.086;2024-02-16T05:40:09;7.20;;;4.75;;
52414;SDS011;38340;52.964;6.086;2024-02-16T05:42:52;8.35;;;5.10;;
52414;SDS011;38340;52.964;6.086;2024-02-16T05:45:18;7.80;;;4.65;;
52414;SDS011;38340;52.964;6.086;2024-02-16T05:47:45;6.28;;;4.88;;
52414;SDS011;38340;52.964;6.086;2024-02-16T05:50:11;6.72;;;5.10;;
52414;SDS011;38340;52.964;6.086;2024-02-16T05:52:38;6.07;;;4.90;;
52414;SDS011;38340;52.964;6.086;2024-02-16T05:55:05;5.72;;;4.72;;
52414;SDS011;38340;52.964;6.086;2024-02-16T05:57:31;11.05;;;5.63;;
52414;SDS011;38340;52.964;6.086;2024-02-16T05:59:57;5.57;;;4.82;;
52414;SDS011;38340;52.964;6.086;2024-02-16T06:02:23;7.07;;;5.10;;
52414;SDS011;38340;52.964;6.086;2024-02-16T06:04:51;10.52;;;5.15;;
52414;SDS011;38340;52.964;6.086;2024-02-16T06:07:17;6.15;;;4.72;;
52414;SDS011;38340;52.964;6.086;2024-02-16T06:09:43;5.47;;;4.60;;
52414;SDS011;38340;52.964;6.086;2024-02-16T06:12:08;10.50;;;5.32;;
52414;SDS011;38340;52.964;6.086;2024-02-16T06:14:34;9.00;;;4.63;;
52414;SDS011;38340;52.964;6.086;2024-02-16T06:17:01;8.38;;;4.60;;
52414;SDS011;38340;52.964;6.086;2024-02-16T06:19:27;6.22;;;4.63;;
52414;SDS011;38340;52.964;6.086;2024-02-16T06:21:54;10.27;;;5.32;;
52414;SDS011;38340;52.964;6.086;2024-02-16T06:24:22;7.05;;;4.47;;
52414;SDS011;38340;52.964;6.086;2024-02-16T06:26:48;6.82;;;5.03;;
52414;SDS011;38340;52.964;6.086;2024-02-16T06:29:15;9.48;;;4.65;;
52414;SDS011;38340;52.964;6.086;2024-02-16T06:31:41;7.60;;;4.78;;
52414;SDS011;38340;52.964;6.086;2024-02-16T06:34:07;6.15;;;4.70;;
52414;SDS011;38340;52.964;6.086;2024-02-16T06:36:33;8.10;;;4.72;;
52414;SDS011;38340;52.964;6.086;2024-02-16T06:38:59;8.38;;;5.30;;
52414;SDS011;38340;52.964;6.086;2024-02-16T06:41:25;8.23;;;5.45;;
52414;SDS011;38340;52.964;6.086;2024-02-16T06:43:50;5.80;;;4.55;;
52414;SDS011;38340;52.964;6.086;2024-02-16T06:46:17;6.57;;;5.40;;
52414;SDS011;38340;52.964;6.086;2024-02-16T06:48:42;8.40;;;5.10;;
52414;SDS011;38340;52.964;6.086;2024-02-16T06:51:08;8.05;;;4.80;;
52414;SDS011;38340;52.964;6.086;2024-02-16T06:53:34;7.13;;;4.88;;
52414;SDS011;38340;52.964;6.086;2024-02-16T06:55:59;6.88;;;4.93;;
52414;SDS011;38340;52.964;6.086;2024-02-16T06:58:25;8.52;;;5.15;;
52414;SDS011;38340;52.964;6.086;2024-02-16T07:00:51;7.75;;;5.25;;
52414;SDS011;38340;52.964;6.086;2024-02-16T07:03:17;8.55;;;5.18;;
52414;SDS011;38340;52.964;6.086;2024-02-16T07:05:43;6.47;;;4.78;;
52414;SDS011;38340;52.964;6.086;2024-02-16T07:08:09;7.75;;;5.18;;
52414;SDS011;38340;52.964;6.086;2024-02-16T07:10:34;6.57;;;5.00;;
52414;SDS011;38340;52.964;6.086;2024-02-16T07:13:00;8.75;;;5.57;;
52414;SDS011;38340;52.964;6.086;2024-02-16T07:15:26;10.65;;;5.63;;
52414;SDS011;38340;52.964;6.086;2024-02-16T07:17:52;8.73;;;4.80;;
52414;SDS011;38340;52.964;6.086;2024-02-16T07:20:22;8.45;;;5.20;;
52414;SDS011;38340;52.964;6.086;2024-02-16T07:22:47;6.63;;;5.13;;
52414;SDS011;38340;52.964;6.086;2024-02-16T07:25:16;7.28;;;4.70;;
52414;SDS011;38340;52.964;6.086;2024-02-16T07:27:42;7.07;;;5.15;;
52414;SDS011;38340;52.964;6.086;2024-02-16T07:30:08;12.95;;;5.93;;
52414;SDS011;38340;52.964;6.086;2024-02-16T07:32:36;7.45;;;4.60;;
52414;SDS011;38340;52.964;6.086;2024-02-16T07:35:02;8.02;;;5.18;;
52414;SDS011;38340;52.964;6.086;2024-02-16T07:37:28;7.75;;;5.13;;
52414;SDS011;38340;52.964;6.086;2024-02-16T07:39:54;8.88;;;4.88;;
52414;SDS011;38340;52.964;6.086;2024-02-16T07:42:19;6.80;;;5.00;;
52414;SDS011;38340;52.964;6.086;2024-02-16T07:44:45;6.97;;;5.25;;
52414;SDS011;38340;52.964;6.086;2024-02-16T07:47:11;10.75;;;5.30;;
52414;SDS011;38340;52.964;6.086;2024-02-16T07:49:40;8.00;;;5.50;;
52414;SDS011;38340;52.964;6.086;2024-02-16T07:52:06;8.27;;;5.35;;
52414;SDS011;38340;52.964;6.086;2024-02-16T07:54:32;6.47;;;5.00;;
52414;SDS011;38340;52.964;6.086;2024-02-16T07:56:57;10.10;;;5.65;;
52414;SDS011;38340;52.964;6.086;2024-02-16T07:59:25;9.27;;;5.43;;
52414;SDS011;38340;52.964;6.086;2024-02-16T08:01:50;10.48;;;5.90;;
52414;SDS011;38340;52.964;6.086;2024-02-16T08:04:16;9.07;;;5.63;;
52414;SDS011;38340;52.964;6.086;2024-02-16T08:06:42;6.78;;;5.00;;
52414;SDS011;38340;52.964;6.086;2024-02-16T08:09:08;6.20;;;5.25;;
52414;SDS011;38340;52.964;6.086;2024-02-16T08:11:33;8.32;;;5.20;;
52414;SDS011;38340;52.964;6.086;2024-02-16T08:13:59;8.35;;;5.72;;
52414;SDS011;38340;52.964;6.086;2024-02-16T08:16:28;9.80;;;5.45;;
52414;SDS011;38340;52.964;6.086;2024-02-16T08:18:54;6.05;;;4.88;;
52414;SDS011;38340;52.964;6.086;2024-02-16T08:21:20;8.98;;;5.70;;
52414;SDS011;38340;52.964;6.086;2024-02-16T08:23:46;5.88;;;5.07;;
52414;SDS011;38340;52.964;6.086;2024-02-16T08:26:12;7.90;;;5.78;;
52414;SDS011;38340;52.964;6.086;2024-02-16T08:28:38;12.05;;;6.15;;
52414;SDS011;38340;52.964;6.086;2024-02-16T08:31:04;8.18;;;5.82;;
52414;SDS011;38340;52.964;6.086;2024-02-16T08:33:31;8.27;;;5.65;;
52414;SDS011;38340;52.964;6.086;2024-02-16T08:35:58;8.50;;;5.32;;
52414;SDS011;38340;52.964;6.086;2024-02-16T08:38:24;9.60;;;5.45;;
52414;SDS011;38340;52.964;6.086;2024-02-16T08:40:49;10.38;;;6.78;;
52414;SDS011;38340;52.964;6.086;2024-02-16T08:43:17;7.43;;;6.22;;
52414;SDS011;38340;52.964;6.086;2024-02-16T08:45:42;9.60;;;5.78;;
52414;SDS011;38340;52.964;6.086;2024-02-16T08:48:08;6.97;;;6.28;;
52414;SDS011;38340;52.964;6.086;2024-02-16T08:50:34;7.28;;;5.78;;
52414;SDS011;38340;52.964;6.086;2024-02-16T08:53:00;8.98;;;6.20;;
52414;SDS011;38340;52.964;6.086;2024-02-16T08:55:25;6.40;;;5.43;;
52414;SDS011;38340;52.964;6.086;2024-02-16T08:57:51;8.63;;;6.30;;
52414;SDS011;38340;52.964;6.086;2024-02-16T09:00:17;11.63;;;6.05;;
52414;SDS011;38340;52.964;6.086;2024-02-16T09:02:43;8.90;;;6.05;;
52414;SDS011;38340;52.964;6.086;2024-02-16T09:05:10;9.02;;;6.00;;
52414;SDS011;38340;52.964;6.086;2024-02-16T09:07:36;9.63;;;6.53;;
52414;SDS011;38340;52.964;6.086;2024-02-16T09:10:02;10.05;;;7.05;;
52414;SDS011;38340;52.964;6.086;2024-02-16T09:12:29;14.40;;;6.57;;
52414;SDS011;38340;52.964;6.086;2024-02-16T09:14:55;10.43;;;6.13;;
52414;SDS011;38340;52.964;6.086;2024-02-16T09:17:21;9.43;;;6.68;;
52414;SDS011;38340;52.964;6.086;2024-02-16T09:19:46;9.63;;;6.32;;
52414;SDS011;38340;52.964;6.086;2024-02-16T09:22:12;9.20;;;6.53;;
52414;SDS011;38340;52.964;6.086;2024-02-16T09:24:38;8.20;;;6.78;;
52414;SDS011;38340;52.964;6.086;2024-02-16T09:27:05;10.10;;;7.07;;
52414;SDS011;38340;52.964;6.086;2024-02-16T09:29:31;7.68;;;6.40;;
52414;SDS011;38340;52.964;6.086;2024-02-16T09:31:58;12.13;;;8.43;;
52414;SDS011;38340;52.964;6.086;2024-02-16T09:34:23;16.20;;;8.20;;
52414;SDS011;38340;52.964;6.086;2024-02-16T09:36:49;11.48;;;8.50;;
52414;SDS011;38340;52.964;6.086;2024-02-16T09:39:15;11.30;;;6.95;;
52414;SDS011;38340;52.964;6.086;2024-02-16T09:41:41;9.65;;;7.40;;
52414;SDS011;38340;52.964;6.086;2024-02-16T09:44:08;11.55;;;7.28;;
52414;SDS011;38340;52.964;6.086;2024-02-16T09:46:35;9.82;;;7.07;;
52414;SDS011;38340;52.964;6.086;2024-02-16T09:49:01;9.90;;;6.13;;
52414;SDS011;38340;52.964;6.086;2024-02-16T09:51:28;8.60;;;7.47;;
52414;SDS011;38340;52.964;6.086;2024-02-16T09:53:55;10.32;;;6.43;;
52414;SDS011;38340;52.964;6.086;2024-02-16T09:56:21;16.25;;;8.02;;
52414;SDS011;38340;52.964;6.086;2024-02-16T09:58:47;9.13;;;7.05;;
52414;SDS011;38340;52.964;6.086;2024-02-16T10:01:19;11.68;;;7.00;;
52414;SDS011;38340;52.964;6.086;2024-02-16T10:03:48;8.68;;;7.38;;
52414;SDS011;38340;52.964;6.086;2024-02-16T10:06:15;11.30;;;7.57;;
52414;SDS011;38340;52.964;6.086;2024-02-16T10:11:15;10.02;;;7.63;;
52414;SDS011;38340;52.964;6.086;2024-02-16T10:13:41;12.60;;;7.75;;
52414;SDS011;38340;52.964;6.086;2024-02-16T10:16:07;10.48;;;7.28;;
52414;SDS011;38340;52.964;6.086;2024-02-16T10:18:38;9.40;;;7.57;;
52414;SDS011;38340;52.964;6.086;2024-02-16T10:21:04;12.30;;;8.63;;
52414;SDS011;38340;52.964;6.086;2024-02-16T10:23:30;10.45;;;7.45;;
52414;SDS011;38340;52.964;6.086;2024-02-16T10:25:56;11.52;;;7.75;;
52414;SDS011;38340;52.964;6.086;2024-02-16T10:28:24;12.07;;;8.02;;
52414;SDS011;38340;52.964;6.086;2024-02-16T10:30:56;12.60;;;8.75;;
52414;SDS011;38340;52.964;6.086;2024-02-16T10:33:27;13.35;;;8.98;;
52414;SDS011;38340;52.964;6.086;2024-02-16T10:35:55;14.73;;;10.18;;
52414;SDS011;38340;52.964;6.086;2024-02-16T10:38:22;15.38;;;10.68;;
52414;SDS011;38340;52.964;6.086;2024-02-16T10:40:49;16.75;;;12.23;;
52414;SDS011;38340;52.964;6.086;2024-02-16T10:43:16;21.58;;;13.73;;
52414;SDS011;38340;52.964;6.086;2024-02-16T10:45:43;20.38;;;14.25;;
52414;SDS011;38340;52.964;6.086;2024-02-16T10:48:12;23.55;;;14.63;;
52414;SDS011;38340;52.964;6.086;2024-02-16T10:50:40;22.00;;;13.82;;
52414;SDS011;38340;52.964;6.086;2024-02-16T10:53:14;22.65;;;13.98;;
52414;SDS011;38340;52.964;6.086;2024-02-16T10:55:44;20.17;;;12.50;;
52414;SDS011;38340;52.964;6.086;2024-02-16T10:58:11;20.77;;;12.75;;
52414;SDS011;38340;52.964;6.086;2024-02-16T11:00:50;20.67;;;12.63;;
52414;SDS011;38340;52.964;6.086;2024-02-16T11:03:17;22.67;;;14.48;;
52414;SDS011;38340;52.964;6.086;2024-02-16T11:05:46;24.52;;;13.90;;
52414;SDS011;38340;52.964;6.086;2024-02-16T11:08:13;25.55;;;15.07;;
52414;SDS011;38340;52.964;6.086;2024-02-16T11:10:56;26.13;;;14.18;;
52414;SDS011;38340;52.964;6.086;2024-02-16T11:13:26;26.10;;;15.32;;
52414;SDS011;38340;52.964;6.086;2024-02-16T11:16:11;31.15;;;16.77;;
52414;SDS011;38340;52.964;6.086;2024-02-16T11:18:39;25.70;;;14.27;;
52414;SDS011;38340;52.964;6.086;2024-02-16T11:21:06;21.00;;;13.68;;
52414;SDS011;38340;52.964;6.086;2024-02-16T11:23:36;29.50;;;13.38;;
52414;SDS011;38340;52.964;6.086;2024-02-16T11:26:02;24.95;;;13.68;;
52414;SDS011;38340;52.964;6.086;2024-02-16T11:28:32;23.60;;;13.43;;
52414;SDS011;38340;52.964;6.086;2024-02-16T11:31:02;26.10;;;15.68;;
52414;SDS011;38340;52.964;6.086;2024-02-16T11:33:29;25.10;;;14.43;;
52414;SDS011;38340;52.964;6.086;2024-02-16T11:36:02;24.73;;;15.20;;
52414;SDS011;38340;52.964;6.086;2024-02-16T11:38:32;27.60;;;14.18;;
52414;SDS011;38340;52.964;6.086;2024-02-16T11:40:59;19.98;;;12.95;;
52414;SDS011;38340;52.964;6.086;2024-02-16T11:43:26;22.52;;;12.35;;
52414;SDS011;38340;52.964;6.086;2024-02-16T11:45:52;43.28;;;16.10;;
52414;SDS011;38340;52.964;6.086;2024-02-16T11:48:19;20.95;;;13.13;;
52414;SDS011;38340;52.964;6.086;2024-02-16T11:50:46;23.65;;;13.07;;
52414;SDS011;38340;52.964;6.086;2024-02-16T11:53:19;23.25;;;14.05;;
52414;SDS011;38340;52.964;6.086;2024-02-16T11:55:48;27.13;;;14.05;;
52414;SDS011;38340;52.964;6.086;2024-02-16T11:58:17;22.85;;;13.10;;
52414;SDS011;38340;52.964;6.086;2024-02-16T12:00:47;37.35;;;13.65;;
52414;SDS011;38340;52.964;6.086;2024-02-16T12:03:23;25.98;;;13.00;;
52414;SDS011;38340;52.964;6.086;2024-02-16T12:05:56;26.08;;;13.38;;
52414;SDS011;38340;52.964;6.086;2024-02-16T12:08:23;21.40;;;13.23;;
52414;SDS011;38340;52.964;6.086;2024-02-16T12:10:57;17.98;;;11.52;;
52414;SDS011;38340;52.964;6.086;2024-02-16T12:13:23;17.35;;;11.15;;
52414;SDS011;38340;52.964;6.086;2024-02-16T12:15:50;15.45;;;10.48;;
52414;SDS011;38340;52.964;6.086;2024-02-16T12:18:21;16.40;;;10.30;;
52414;SDS011;38340;52.964;6.086;2024-02-16T12:21:03;30.02;;;12.00;;
52414;SDS011;38340;52.964;6.086;2024-02-16T12:23:31;15.35;;;9.38;;
52414;SDS011;38340;52.964;6.086;2024-02-16T12:26:00;14.77;;;8.82;;
52414;SDS011;38340;52.964;6.086;2024-02-16T12:28:28;9.50;;;7.07;;
52414;SDS011;38340;52.964;6.086;2024-02-16T12:30:55;9.48;;;7.63;;
52414;SDS011;38340;52.964;6.086;2024-02-16T12:33:21;9.23;;;6.93;;
52414;SDS011;38340;52.964;6.086;2024-02-16T12:35:48;10.40;;;7.18;;
52414;SDS011;38340;52.964;6.086;2024-02-16T12:38:13;26.75;;;9.02;;
52414;SDS011;38340;52.964;6.086;2024-02-16T12:40:42;51.83;;;10.15;;
52414;SDS011;38340;52.964;6.086;2024-02-16T12:43:14;53.28;;;10.07;;
52414;SDS011;38340;52.964;6.086;2024-02-16T12:45:40;101.93;;;17.08;;
52414;SDS011;38340;52.964;6.086;2024-02-16T12:48:07;100.88;;;13.43;;
52414;SDS011;38340;52.964;6.086;2024-02-16T12:50:35;88.05;;;11.52;;
52414;SDS011;38340;52.964;6.086;2024-02-16T12:53:03;53.17;;;10.45;;
52414;SDS011;38340;52.964;6.086;2024-02-16T12:55:29;77.53;;;11.52;;
52414;SDS011;38340;52.964;6.086;2024-02-16T12:57:55;6.90;;;5.22;;
52414;SDS011;38340;52.964;6.086;2024-02-16T13:00:21;7.05;;;5.25;;
52414;SDS011;38340;52.964;6.086;2024-02-16T13:02:47;6.28;;;5.32;;
52414;SDS011;38340;52.964;6.086;2024-02-16T13:05:13;6.53;;;5.22;;
52414;SDS011;38340;52.964;6.086;2024-02-16T13:07:39;5.03;;;4.53;;
52414;SDS011;38340;52.964;6.086;2024-02-16T13:10:06;5.75;;;4.50;;
52414;SDS011;38340;52.964;6.086;2024-02-16T13:12:33;7.07;;;5.22;;
52414;SDS011;38340;52.964;6.086;2024-02-16T13:14:59;5.22;;;4.72;;
52414;SDS011;38340;52.964;6.086;2024-02-16T13:17:25;5.25;;;4.60;;
52414;SDS011;38340;52.964;6.086;2024-02-16T13:19:51;7.25;;;5.32;;
52414;SDS011;38340;52.964;6.086;2024-02-16T13:22:17;6.00;;;4.85;;
52414;SDS011;38340;52.964;6.086;2024-02-16T13:24:43;5.82;;;4.80;;
52414;SDS011;38340;52.964;6.086;2024-02-16T13:27:09;6.07;;;4.70;;
52414;SDS011;38340;52.964;6.086;2024-02-16T13:29:35;6.68;;;5.63;;
52414;SDS011;38340;52.964;6.086;2024-02-16T13:32:01;23.15;;;6.72;;
52414;SDS011;38340;52.964;6.086;2024-02-16T13:34:28;8.60;;;5.85;;
52414;SDS011;38340;52.964;6.086;2024-02-16T13:36:55;9.48;;;6.03;;
52414;SDS011;38340;52.964;6.086;2024-02-16T13:39:21;8.93;;;5.95;;
52414;SDS011;38340;52.964;6.086;2024-02-16T13:41:47;7.60;;;5.43;;
52414;SDS011;38340;52.964;6.086;2024-02-16T13:44:16;11.57;;;6.90;;
52414;SDS011;38340;52.964;6.086;2024-02-16T13:46:46;11.52;;;7.07;;
52414;SDS011;38340;52.964;6.086;2024-02-16T13:49:12;8.20;;;6.50;;
52414;SDS011;38340;52.964;6.086;2024-02-16T13:51:39;10.43;;;7.43;;
52414;SDS011;38340;52.964;6.086;2024-02-16T13:54:06;11.55;;;7.45;;
52414;SDS011;38340;52.964;6.086;2024-02-16T13:56:31;10.57;;;7.22;;
52414;SDS011;38340;52.964;6.086;2024-02-16T13:58:57;14.45;;;8.85;;
52414;SDS011;38340;52.964;6.086;2024-02-16T14:01:23;10.38;;;7.57;;
52414;SDS011;38340;52.964;6.086;2024-02-16T14:03:51;11.93;;;7.07;;
52414;SDS011;38340;52.964;6.086;2024-02-16T14:06:17;10.20;;;7.22;;
52414;SDS011;38340;52.964;6.086;2024-02-16T14:08:43;11.45;;;7.25;;
52414;SDS011;38340;52.964;6.086;2024-02-16T14:11:08;11.50;;;7.03;;
52414;SDS011;38340;52.964;6.086;2024-02-16T14:13:34;14.27;;;8.68;;
52414;SDS011;38340;52.964;6.086;2024-02-16T14:16:00;15.48;;;7.97;;
52414;SDS011;38340;52.964;6.086;2024-02-16T14:18:26;11.05;;;7.57;;
52414;SDS011;38340;52.964;6.086;2024-02-16T14:20:52;17.25;;;9.02;;
52414;SDS011;38340;52.964;6.086;2024-02-16T14:23:17;13.07;;;7.78;;
52414;SDS011;38340;52.964;6.086;2024-02-16T14:25:43;12.68;;;7.22;;
52414;SDS011;38340;52.964;6.086;2024-02-16T14:28:10;10.20;;;7.32;;
52414;SDS011;38340;52.964;6.086;2024-02-16T14:30:36;12.57;;;7.15;;
52414;SDS011;38340;52.964;6.086;2024-02-16T14:33:02;12.82;;;6.75;;
52414;SDS011;38340;52.964;6.086;2024-02-16T14:35:30;9.45;;;6.55;;
52414;SDS011;38340;52.964;6.086;2024-02-16T14:37:57;11.02;;;7.07;;
52414;SDS011;38340;52.964;6.086;2024-02-16T14:40:24;10.38;;;6.47;;